^^
Your Local Weather - Clay, NY Station Historical Data
Daily Summary for November 15, 2017 Units:  English    Metric   Both
« Previous Day
Next Day »
Daily Weekly Monthly Yearly Custom
  High: Low: Average:
Temperature: 46.2 °F 25.6 °F 37 °F
Dew Point: 34.9 °F 23.9 °F 28.9 °F
Humidity: 93% 50% 74%
Wind Speed: 9.0mph 0.0mph 2.7mph
Wind Gust: 15.0mph - -
Wind- - SE
Pressure: 30.28 in 29.80 in -
Precipitation: 0.00 in    
Historical Graphs
 
 
Tabular Data for November 15, 2017
Time Temperature Dew Point Pressure Wind Wind Speed Wind Gust Humidity Rainfall Rate (Hourly) solar
00:02 29.4 °F 27.1 °F 30.28 in Calm     91% 0.00 in 0 W/m2
00:08 29.2 °F 26.9 °F 30.28 in Calm     91% 0.00 in 0 W/m2
00:14 29.1 °F 26.8 °F 30.27 in Calm     91% 0.00 in 0 W/m2
00:20 28.9 °F 26.6 °F 30.27 in Calm     91% 0.00 in 0 W/m2
00:26 28.6 °F 26.3 °F 30.27 in Calm     91% 0.00 in 0 W/m2
00:32 28.5 °F 26.2 °F 30.28 in Calm     91% 0.00 in 0 W/m2
00:38 28.4 °F 26.1 °F 30.28 in Calm     91% 0.00 in 0 W/m2
00:44 28.3 °F 26.0 °F 30.28 in Calm     91% 0.00 in 0 W/m2
00:50 28.2 °F 25.9 °F 30.28 in Calm     91% 0.00 in 0 W/m2
00:56 28.1 °F 25.8 °F 30.28 in Calm     91% 0.00 in 0 W/m2
01:02 27.8 °F 25.5 °F 30.28 in Calm     91% 0.00 in 0 W/m2
01:08 27.6 °F 25.3 °F 30.28 in Calm     91% 0.00 in 0 W/m2
01:14 27.4 °F 25.1 °F 30.28 in Calm     91% 0.00 in 0 W/m2
01:20 27.5 °F 25.2 °F 30.28 in Calm     91% 0.00 in 0 W/m2
01:26 27.5 °F 25.2 °F 30.28 in Calm     91% 0.00 in 0 W/m2
01:32 27.3 °F 25.0 °F 30.28 in Calm     91% 0.00 in 0 W/m2
01:38 27.3 °F 25.0 °F 30.28 in Calm     91% 0.00 in 0 W/m2
01:44 27.3 °F 25.3 °F 30.28 in Calm     92% 0.00 in 0 W/m2
01:50 27.1 °F 25.1 °F 30.28 in Calm     92% 0.00 in 0 W/m2
01:56 27.0 °F 24.7 °F 30.28 in Calm     91% 0.00 in 0 W/m2
02:04 27.1 °F 25.1 °F 30.28 in Calm     92% 0.00 in 0 W/m2
02:10 26.9 °F 24.9 °F 30.28 in Calm     92% 0.00 in 0 W/m2
02:16 26.9 °F 24.9 °F 30.28 in Calm     92% 0.00 in 0 W/m2
02:22 26.9 °F 24.9 °F 30.28 in Calm     92% 0.00 in 0 W/m2
02:28 26.9 °F 24.9 °F 30.28 in Calm     92% 0.00 in 0 W/m2
02:34 26.9 °F 24.9 °F 30.28 in Calm     92% 0.00 in 0 W/m2
02:40 27.0 °F 25.0 °F 30.28 in Calm     92% 0.00 in 0 W/m2
02:46 26.8 °F 24.8 °F 30.28 in Calm     92% 0.00 in 0 W/m2
02:52 26.5 °F 24.5 °F 30.27 in Calm     92% 0.00 in 0 W/m2
02:58 26.4 °F 24.4 °F 30.27 in Calm     92% 0.00 in 0 W/m2
03:04 26.3 °F 24.3 °F 30.27 in Calm     92% 0.00 in 0 W/m2
03:10 26.2 °F 24.2 °F 30.27 in Calm     92% 0.00 in 0 W/m2
03:16 26.3 °F 24.3 °F 30.27 in Calm     92% 0.00 in 0 W/m2
03:22 26.3 °F 24.3 °F 30.27 in Calm     92% 0.00 in 0 W/m2
03:28 26.3 °F 24.3 °F 30.27 in Calm     92% 0.00 in 0 W/m2
03:34 26.2 °F 24.2 °F 30.27 in Calm     92% 0.00 in 0 W/m2
03:40 26.1 °F 24.1 °F 30.27 in Calm     92% 0.00 in 0 W/m2
03:46 26.3 °F 24.3 °F 30.27 in Calm     92% 0.00 in 0 W/m2
03:52 26.2 °F 24.2 °F 30.27 in Calm     92% 0.00 in 0 W/m2
03:58 26.2 °F 24.2 °F 30.26 in Calm     92% 0.00 in 0 W/m2
04:04 26.3 °F 24.3 °F 30.26 in Calm     92% 0.00 in 0 W/m2
04:10 26.4 °F 24.4 °F 30.26 in Calm     92% 0.00 in 0 W/m2
04:16 26.3 °F 24.3 °F 30.26 in Calm     92% 0.00 in 0 W/m2
04:22 26.2 °F 24.2 °F 30.27 in Calm     92% 0.00 in 0 W/m2
04:28 26.3 °F 24.3 °F 30.27 in Calm     92% 0.00 in 0 W/m2
04:34 26.3 °F 24.3 °F 30.27 in Calm     92% 0.00 in 0 W/m2
04:40 26.2 °F 24.2 °F 30.27 in Calm     92% 0.00 in 0 W/m2
04:46 26.1 °F 24.1 °F 30.27 in Calm     92% 0.00 in 0 W/m2
04:52 26.0 °F 24.0 °F 30.27 in Calm     92% 0.00 in 0 W/m2
04:58 26.0 °F 24.0 °F 30.27 in Calm     92% 0.00 in 0 W/m2
05:04 26.2 °F 24.5 °F 30.27 in Calm     93% 0.00 in 0 W/m2
05:10 26.3 °F 24.6 °F 30.26 in Calm     93% 0.00 in 0 W/m2
05:16 26.3 °F 24.6 °F 30.27 in Calm     93% 0.00 in 0 W/m2
05:22 26.3 °F 24.3 °F 30.27 in Calm     92% 0.00 in 0 W/m2
05:28 26.3 °F 24.6 °F 30.27 in Calm     93% 0.00 in 0 W/m2
05:34 26.2 °F 24.5 °F 30.27 in Calm     93% 0.00 in 0 W/m2
05:42 26.2 °F 24.5 °F 30.27 in Calm     93% 0.00 in 0 W/m2
05:48 26.3 °F 24.6 °F 30.26 in Calm     93% 0.00 in 0 W/m2
05:54 26.3 °F 24.6 °F 30.26 in Calm     93% 0.00 in 0 W/m2
06:00 26.3 °F 24.6 °F 30.27 in Calm     93% 0.00 in 0 W/m2
06:06 26.2 °F 24.5 °F 30.26 in Calm     93% 0.00 in 0 W/m2
06:12 26.1 °F 24.4 °F 30.26 in Calm     93% 0.00 in 0 W/m2
06:24 26.0 °F 24.3 °F 30.26 in Calm     93% 0.00 in 0 W/m2
06:30 26.0 °F 24.3 °F 30.27 in Calm     93% 0.00 in 0 W/m2
06:36 26.0 °F 24.3 °F 30.26 in Calm     93% 0.00 in 0 W/m2
06:42 25.9 °F 24.2 °F 30.26 in Calm     93% 0.00 in 0 W/m2
06:48 25.8 °F 24.1 °F 30.26 in Calm     93% 0.00 in 0 W/m2
06:54 25.6 °F 23.9 °F 30.26 in Calm     93% 0.00 in 5 W/m2
07:00 25.6 °F 23.9 °F 30.26 in Calm     93% 0.00 in 7 W/m2
07:06 25.6 °F 23.9 °F 30.26 in Calm   1.0 mph 93% 0.00 in 11 W/m2
07:12 25.8 °F 24.1 °F 30.26 in Calm     93% 0.00 in 16 W/m2
07:18 26.1 °F 24.4 °F 30.25 in Calm     93% 0.00 in 21 W/m2
07:24 26.3 °F 24.6 °F 30.26 in Calm     93% 0.00 in 26 W/m2
07:30 26.5 °F 24.8 °F 30.26 in Calm     93% 0.00 in 30 W/m2
07:36 26.8 °F 25.0 °F 30.25 in Calm     93% 0.00 in 35 W/m2
07:42 27.1 °F 25.3 °F 30.25 in Calm   1.0 mph 93% 0.00 in 37 W/m2
07:48 27.4 °F 25.6 °F 30.26 in Calm   1.0 mph 93% 0.00 in 39 W/m2
07:54 27.7 °F 25.9 °F 30.25 in Calm     93% 0.00 in 60 W/m2
08:00 28.1 °F 26.3 °F 30.25 in Calm     93% 0.00 in 86 W/m2
08:12 29.1 °F 27.3 °F 30.25 in East 1.0 mph 1.0 mph 93% 0.00 in 125 W/m2
08:18 29.5 °F 27.7 °F 30.25 in Calm   2.0 mph 93% 0.00 in 130 W/m2
08:24 29.9 °F 28.1 °F 30.25 in Calm   2.0 mph 93% 0.00 in 135 W/m2
08:30 30.1 °F 28.3 °F 30.24 in East 1.0 mph 3.0 mph 93% 0.00 in 144 W/m2
08:36 30.8 °F 29.0 °F 30.24 in East 1.0 mph 3.0 mph 93% 0.00 in 227 W/m2
08:42 31.6 °F 29.8 °F 30.23 in East 1.0 mph 2.0 mph 93% 0.00 in 269 W/m2
08:48 32.2 °F 30.4 °F 30.23 in East 1.0 mph 2.0 mph 93% 0.00 in 220 W/m2
08:54 32.7 °F 30.9 °F 30.23 in East 1.0 mph 2.0 mph 93% 0.00 in 285 W/m2
09:00 33.1 °F 31.0 °F 30.22 in ESE 1.0 mph 1.0 mph 92% 0.00 in 283 W/m2
09:06 33.5 °F 30.9 °F 30.22 in East 2.0 mph 2.0 mph 90% 0.00 in 278 W/m2
09:12 33.9 °F 31.0 °F 30.22 in ESE 2.0 mph 3.0 mph 89% 0.00 in 318 W/m2
09:18 34.5 °F 31.6 °F 30.21 in East 2.0 mph 4.0 mph 89% 0.00 in 330 W/m2
09:24 35.2 °F 31.7 °F 30.21 in NE 2.0 mph 3.0 mph 87% 0.00 in 345 W/m2
09:30 35.9 °F 32.1 °F 30.21 in East 2.0 mph 3.0 mph 86% 0.00 in 364 W/m2
09:36 36.4 °F 32.3 °F 30.21 in ENE 2.0 mph 6.0 mph 85% 0.00 in 381 W/m2
09:42 36.7 °F 32.0 °F 30.21 in East 2.0 mph 2.0 mph 83% 0.00 in 352 W/m2
09:48 36.8 °F 31.8 °F 30.22 in ENE 2.0 mph 3.0 mph 82% 0.00 in 394 W/m2
09:54 37.2 °F 31.9 °F 30.21 in ESE 3.0 mph 3.0 mph 81% 0.00 in 401 W/m2
10:00 37.7 °F 32.4 °F 30.21 in SE 2.0 mph 3.0 mph 81% 0.00 in 410 W/m2
10:06 38.1 °F 32.8 °F 30.20 in ENE 2.0 mph 7.0 mph 81% 0.00 in 415 W/m2
10:12 38.2 °F 32.6 °F 30.20 in ENE 3.0 mph 7.0 mph 80% 0.00 in 420 W/m2
10:18 39.1 °F 33.5 °F 30.19 in East 3.0 mph 7.0 mph 80% 0.00 in 432 W/m2
10:24 39.3 °F 32.7 °F 30.19 in ENE 2.0 mph 4.0 mph 77% 0.00 in 434 W/m2
10:30 39.5 °F 33.5 °F 30.19 in SE 3.0 mph 3.0 mph 79% 0.00 in 343 W/m2
10:36 39.4 °F 33.1 °F 30.19 in East 2.0 mph 5.0 mph 78% 0.00 in 406 W/m2
10:42 40.0 °F 34.3 °F 30.19 in ENE 3.0 mph 3.0 mph 80% 0.00 in 448 W/m2
10:48 39.7 °F 33.4 °F 30.18 in SE 3.0 mph 4.0 mph 78% 0.00 in 455 W/m2
10:54 40.8 °F 34.5 °F 30.18 in NE 3.0 mph 5.0 mph 78% 0.00 in 468 W/m2
11:00 41.2 °F 34.9 °F 30.17 in East 3.0 mph 3.0 mph 78% 0.00 in 469 W/m2
11:06 41.2 °F 34.2 °F 30.17 in ENE 3.0 mph 3.0 mph 76% 0.00 in 475 W/m2
11:12 41.7 °F 34.7 °F 30.16 in ESE 3.0 mph 4.0 mph 76% 0.00 in 475 W/m2
11:18 41.7 °F 34.0 °F 30.16 in SE 3.0 mph 4.0 mph 74% 0.00 in 473 W/m2
11:24 42.4 °F 34.7 °F 30.16 in ENE 3.0 mph 4.0 mph 74% 0.00 in 478 W/m2
11:30 42.6 °F 34.5 °F 30.15 in ENE 3.0 mph 5.0 mph 73% 0.00 in 476 W/m2
11:36 42.4 °F 33.7 °F 30.15 in East 4.0 mph 5.0 mph 71% 0.00 in 473 W/m2
11:42 42.5 °F 33.8 °F 30.13 in NE 3.0 mph 3.0 mph 71% 0.00 in 475 W/m2
11:48 43.6 °F 34.1 °F 30.13 in East 3.0 mph 3.0 mph 69% 0.00 in 471 W/m2
11:54 43.3 °F 33.4 °F 30.13 in ENE 4.0 mph 5.0 mph 68% 0.00 in 480 W/m2
12:00 43.8 °F 33.9 °F 30.11 in ENE 4.0 mph 7.0 mph 68% 0.00 in 452 W/m2
12:06 44.1 °F 33.1 °F 30.10 in ESE 5.0 mph 8.0 mph 65% 0.00 in 468 W/m2
12:12 44.8 °F 33.7 °F 30.10 in East 4.0 mph 5.0 mph 65% 0.00 in 434 W/m2
12:18 44.8 °F 32.2 °F 30.09 in SE 3.0 mph 9.0 mph 61% 0.00 in 387 W/m2
12:24 45.3 °F 32.2 °F 30.09 in SE 4.0 mph 9.0 mph 60% 0.00 in 397 W/m2
12:30 45.6 °F 31.2 °F 30.08 in SSE 4.0 mph 5.0 mph 57% 0.00 in 371 W/m2
12:36 45.5 °F 30.7 °F 30.08 in SE 5.0 mph 11.0 mph 56% 0.00 in 390 W/m2
12:42 45.3 °F 30.5 °F 30.08 in SE 5.0 mph 6.0 mph 56% 0.00 in 376 W/m2
12:48 45.8 °F 31.9 °F 30.08 in SE 4.0 mph 10.0 mph 58% 0.00 in 366 W/m2
12:54 45.7 °F 30.4 °F 30.08 in East 4.0 mph 8.0 mph 55% 0.00 in 336 W/m2
13:00 45.6 °F 30.3 °F 30.07 in ESE 4.0 mph 4.0 mph 55% 0.00 in 309 W/m2
13:06 45.7 °F 30.4 °F 30.07 in SSE 5.0 mph 6.0 mph 55% 0.00 in 295 W/m2
13:12 45.9 °F 30.6 °F 30.07 in SSE 5.0 mph 5.0 mph 55% 0.00 in 329 W/m2
13:18 45.6 °F 30.8 °F 30.07 in SSE 6.0 mph 8.0 mph 56% 0.00 in 299 W/m2
13:24 45.6 °F 29.9 °F 30.07 in ESE 6.0 mph 11.0 mph 54% 0.00 in 265 W/m2
13:30 46.0 °F 30.7 °F 30.07 in SE 5.0 mph 5.0 mph 55% 0.00 in 283 W/m2
13:36 45.9 °F 30.6 °F 30.06 in SE 6.0 mph 7.0 mph 55% 0.00 in 272 W/m2
13:42 46.1 °F 30.8 °F 30.06 in SSE 6.0 mph 6.0 mph 55% 0.00 in 258 W/m2
13:48 45.9 °F 30.2 °F 30.05 in SSE 6.0 mph 7.0 mph 54% 0.00 in 253 W/m2
13:54 46.1 °F 29.9 °F 30.05 in SSE 5.0 mph 6.0 mph 53% 0.00 in 251 W/m2
14:00 46.2 °F 29.1 °F 30.05 in SE 5.0 mph 7.0 mph 51% 0.00 in 250 W/m2
14:06 46.1 °F 29.0 °F 30.05 in SE 6.0 mph 7.0 mph 51% 0.00 in 229 W/m2
14:12 45.8 °F 28.2 °F 30.04 in SSE 6.0 mph 7.0 mph 50% 0.00 in 185 W/m2
14:18 45.4 °F 27.8 °F 30.04 in SE 7.0 mph 8.0 mph 50% 0.00 in 165 W/m2
14:24 45.4 °F 28.8 °F 30.04 in SSE 7.0 mph 8.0 mph 52% 0.00 in 153 W/m2
14:30 45.3 °F 28.2 °F 30.03 in SE 6.0 mph 6.0 mph 51% 0.00 in 146 W/m2
14:36 45.2 °F 28.1 °F 30.04 in SSE 5.0 mph 6.0 mph 51% 0.00 in 137 W/m2
14:42 45.0 °F 27.9 °F 30.04 in SSE 6.0 mph 6.0 mph 51% 0.00 in 125 W/m2
14:48 44.9 °F 27.8 °F 30.03 in SE 6.0 mph 6.0 mph 51% 0.00 in 116 W/m2
14:54 44.8 °F 28.7 °F 30.03 in South 5.0 mph 7.0 mph 53% 0.00 in 113 W/m2
15:00 44.8 °F 28.7 °F 30.02 in SE 5.0 mph 5.0 mph 53% 0.00 in 109 W/m2
15:06 44.7 °F 28.6 °F 30.02 in East 5.0 mph 7.0 mph 53% 0.00 in 95 W/m2
15:12 44.6 °F 28.5 °F 30.02 in SE 4.0 mph 6.0 mph 53% 0.00 in 88 W/m2
15:18 44.4 °F 28.8 °F 30.01 in SSE 5.0 mph 9.0 mph 54% 0.00 in 81 W/m2
15:24 44.3 °F 28.7 °F 30.01 in SSE 5.0 mph 7.0 mph 54% 0.00 in 77 W/m2
15:30 44.1 °F 28.9 °F 30.01 in SSE 6.0 mph 6.0 mph 55% 0.00 in 69 W/m2
15:36 44.0 °F 28.9 °F 30.01 in SSE 5.0 mph 6.0 mph 55% 0.00 in 62 W/m2
15:42 43.9 °F 28.8 °F 30.01 in SSE 4.0 mph 6.0 mph 55% 0.00 in 51 W/m2
15:48 43.8 °F 29.1 °F 30.00 in South 5.0 mph 6.0 mph 56% 0.00 in 42 W/m2
15:54 43.7 °F 29.0 °F 30.00 in SE 5.0 mph 5.0 mph 56% 0.00 in 35 W/m2
16:00 43.5 °F 28.8 °F 29.99 in SE 4.0 mph 4.0 mph 56% 0.00 in 30 W/m2
16:06 43.5 °F 28.8 °F 29.99 in ESE 4.0 mph 4.0 mph 56% 0.00 in 25 W/m2
16:12 43.4 °F 29.2 °F 29.99 in South 5.0 mph 8.0 mph 57% 0.00 in 19 W/m2
16:18 43.2 °F 29.0 °F 29.99 in SE 6.0 mph 8.0 mph 57% 0.00 in 14 W/m2
16:24 43.1 °F 29.3 °F 29.99 in SE 5.0 mph 9.0 mph 58% 0.00 in 9 W/m2
16:30 42.9 °F 29.1 °F 29.99 in SSE 5.0 mph 6.0 mph 58% 0.00 in 5 W/m2
16:36 42.8 °F 29.5 °F 29.98 in SE 6.0 mph 7.0 mph 59% 0.00 in 0 W/m2
16:48 42.5 °F 29.2 °F 29.98 in ESE 4.0 mph 7.0 mph 59% 0.00 in 0 W/m2
16:54 42.3 °F 29.4 °F 29.98 in SE 5.0 mph 7.0 mph 60% 0.00 in 0 W/m2
17:00 42.4 °F 29.1 °F 29.97 in SE 5.0 mph 5.0 mph 59% 0.00 in 0 W/m2
17:06 42.1 °F 29.2 °F 29.97 in SE 5.0 mph 5.0 mph 60% 0.00 in 0 W/m2
17:12 41.8 °F 28.9 °F 29.97 in SE 4.0 mph 4.0 mph 60% 0.00 in 0 W/m2
17:18 41.6 °F 29.1 °F 29.97 in SE 3.0 mph 5.0 mph 61% 0.00 in 0 W/m2
17:24 41.4 °F 28.9 °F 29.97 in SSE 3.0 mph 3.0 mph 61% 0.00 in 0 W/m2
17:30 41.4 °F 28.9 °F 29.96 in East 3.0 mph 3.0 mph 61% 0.00 in 0 W/m2
17:36 41.2 °F 28.8 °F 29.96 in ESE 4.0 mph 4.0 mph 61% 0.00 in 0 W/m2
17:42 41.0 °F 29.0 °F 29.96 in ESE 3.0 mph 4.0 mph 62% 0.00 in 0 W/m2
17:48 40.8 °F 28.8 °F 29.96 in SSE 2.0 mph 4.0 mph 62% 0.00 in 0 W/m2
17:54 40.8 °F 29.2 °F 29.96 in SE 3.0 mph 7.0 mph 63% 0.00 in 0 W/m2
18:00 40.8 °F 29.2 °F 29.96 in ESE 3.0 mph 3.0 mph 63% 0.00 in 0 W/m2
18:06 40.6 °F 29.0 °F 29.96 in ESE 3.0 mph 5.0 mph 63% 0.00 in 0 W/m2
18:12 40.5 °F 29.3 °F 29.94 in ESE 3.0 mph 3.0 mph 64% 0.00 in 0 W/m2
18:18 40.6 °F 29.4 °F 29.95 in East 3.0 mph 5.0 mph 64% 0.00 in 0 W/m2
18:24 40.5 °F 29.3 °F 29.94 in ENE 3.0 mph 3.0 mph 64% 0.00 in 0 W/m2
18:32 40.4 °F 29.6 °F 29.94 in East 2.0 mph 5.0 mph 65% 0.00 in 0 W/m2
18:38 40.4 °F 29.6 °F 29.94 in ESE 3.0 mph 8.0 mph 65% 0.00 in 0 W/m2
18:44 40.5 °F 29.7 °F 29.93 in East 3.0 mph 5.0 mph 65% 0.00 in 0 W/m2
18:50 40.5 °F 29.7 °F 29.93 in East 3.0 mph 3.0 mph 65% 0.00 in 0 W/m2
18:56 40.7 °F 29.5 °F 29.93 in ESE 3.0 mph 5.0 mph 64% 0.00 in 0 W/m2
19:02 40.8 °F 29.9 °F 29.93 in East 2.0 mph 5.0 mph 65% 0.00 in 0 W/m2
19:08 40.8 °F 29.9 °F 29.93 in East 2.0 mph 5.0 mph 65% 0.00 in 0 W/m2
19:14 40.9 °F 30.0 °F 29.93 in East 2.0 mph 5.0 mph 65% 0.00 in 0 W/m2
19:20 40.9 °F 30.0 °F 29.92 in SE 2.0 mph 2.0 mph 65% 0.00 in 0 W/m2
19:26 41.0 °F 30.1 °F 29.93 in East 2.0 mph 2.0 mph 65% 0.00 in 0 W/m2
19:32 41.0 °F 30.1 °F 29.93 in East 1.0 mph 5.0 mph 65% 0.00 in 0 W/m2
19:38 41.2 °F 29.9 °F 29.93 in East 1.0 mph 5.0 mph 64% 0.00 in 0 W/m2
19:44 41.4 °F 30.1 °F 29.92 in SE 2.0 mph 5.0 mph 64% 0.00 in 0 W/m2
19:50 41.4 °F 30.1 °F 29.92 in SSE 2.0 mph 2.0 mph 64% 0.00 in 0 W/m2
19:56 41.5 °F 30.2 °F 29.92 in SSE 1.0 mph 2.0 mph 64% 0.00 in 0 W/m2
20:02 41.5 °F 30.2 °F 29.91 in East 1.0 mph 1.0 mph 64% 0.00 in 0 W/m2
20:08 41.4 °F 30.1 °F 29.91 in East 2.0 mph 3.0 mph 64% 0.00 in 0 W/m2
20:14 41.6 °F 30.3 °F 29.91 in ENE 2.0 mph 3.0 mph 64% 0.00 in 0 W/m2
20:20 41.7 °F 30.4 °F 29.90 in SE 2.0 mph 5.0 mph 64% 0.00 in 0 W/m2
20:26 42.5 °F 30.8 °F 29.90 in SSE 2.0 mph 7.0 mph 63% 0.00 in 0 W/m2
20:32 43.5 °F 30.5 °F 29.90 in SSE 3.0 mph 4.0 mph 60% 0.00 in 0 W/m2
20:38 43.6 °F 31.0 °F 29.90 in SSE 3.0 mph 6.0 mph 61% 0.00 in 0 W/m2
20:44 44.0 °F 31.0 °F 29.89 in SSE 3.0 mph 7.0 mph 60% 0.00 in 0 W/m2
20:50 44.2 °F 31.2 °F 29.89 in SSE 5.0 mph 5.0 mph 60% 0.00 in 0 W/m2
20:56 44.2 °F 31.2 °F 29.89 in SE 4.0 mph 8.0 mph 60% 0.00 in 0 W/m2
21:02 44.5 °F 31.5 °F 29.88 in South 6.0 mph 6.0 mph 60% 0.00 in 0 W/m2
21:08 44.5 °F 31.5 °F 29.88 in SE 7.0 mph 11.0 mph 60% 0.00 in 0 W/m2
21:14 44.6 °F 31.6 °F 29.88 in SSE 6.0 mph 7.0 mph 60% 0.00 in 0 W/m2
21:20 44.5 °F 31.9 °F 29.88 in SSE 5.0 mph 5.0 mph 61% 0.00 in 0 W/m2
21:26 44.4 °F 31.8 °F 29.88 in SSE 5.0 mph 7.0 mph 61% 0.00 in 0 W/m2
21:32 44.6 °F 32.0 °F 29.87 in SE 5.0 mph 12.0 mph 61% 0.00 in 0 W/m2
21:38 44.7 °F 32.1 °F 29.86 in SSE 7.0 mph 12.0 mph 61% 0.00 in 0 W/m2
21:44 44.8 °F 32.2 °F 29.87 in SSE 7.0 mph 10.0 mph 61% 0.00 in 0 W/m2
21:50 44.9 °F 32.3 °F 29.86 in South 7.0 mph 8.0 mph 61% 0.00 in 0 W/m2
21:56 45.0 °F 32.8 °F 29.87 in SSE 7.0 mph 10.0 mph 62% 0.00 in 0 W/m2
22:02 44.9 °F 32.7 °F 29.87 in SSE 6.0 mph 8.0 mph 62% 0.00 in 0 W/m2
22:08 44.9 °F 32.7 °F 29.86 in SE 6.0 mph 9.0 mph 62% 0.00 in 0 W/m2
22:16 45.0 °F 33.2 °F 29.86 in SSE 7.0 mph 9.0 mph 63% 0.00 in 0 W/m2
22:22 44.9 °F 33.1 °F 29.86 in SSE 6.0 mph 6.0 mph 63% 0.00 in 0 W/m2
22:26 44.9 °F 33.1 °F 29.85 in ESE 6.0 mph 7.0 mph 63% 0.00 in 0 W/m2
22:32 45.0 °F 33.2 °F 29.85 in SSE 6.0 mph 7.0 mph 63% 0.00 in 0 W/m2
22:38 45.1 °F 33.2 °F 29.85 in SE 6.0 mph 7.0 mph 63% 0.00 in 0 W/m2
22:44 45.0 °F 33.2 °F 29.85 in SSE 6.0 mph 7.0 mph 63% 0.00 in 0 W/m2
22:50 45.1 °F 33.2 °F 29.85 in SW 6.0 mph 6.0 mph 63% 0.00 in 0 W/m2
22:56 45.1 °F 33.6 °F 29.83 in SSE 5.0 mph 8.0 mph 64% 0.00 in 0 W/m2
23:02 45.1 °F 33.6 °F 29.83 in SSE 6.0 mph 8.0 mph 64% 0.00 in 0 W/m2
23:08 45.2 °F 33.3 °F 29.83 in SE 6.0 mph 8.0 mph 63% 0.00 in 0 W/m2
23:14 45.2 °F 33.7 °F 29.82 in SSW 6.0 mph 8.0 mph 64% 0.00 in 0 W/m2
23:20 45.3 °F 33.8 °F 29.82 in South 6.0 mph 11.0 mph 64% 0.00 in 0 W/m2
23:26 45.3 °F 33.8 °F 29.82 in SSE 7.0 mph 11.0 mph 64% 0.00 in 0 W/m2
23:32 45.4 °F 33.9 °F 29.82 in SSE 6.0 mph 15.0 mph 64% 0.00 in 0 W/m2
23:38 45.5 °F 34.0 °F 29.81 in South 7.0 mph 15.0 mph 64% 0.00 in 0 W/m2
23:44 45.6 °F 34.1 °F 29.81 in South 8.0 mph 10.0 mph 64% 0.00 in 0 W/m2
23:50 45.6 °F 34.1 °F 29.81 in SSW 9.0 mph 9.0 mph 64% 0.00 in 0 W/m2
23:56 45.6 °F 34.1 °F 29.80 in South 8.0 mph 9.0 mph 64% 0.00 in 0 W/m2
Country Meadow, Clay, NY, USA
Compliments of Weather Underground - 2 mb